createdAt,value
2017-05-11T00:02:22.092Z,80.60
2017-05-11T00:04:50.057Z,81.70
2017-05-11T00:07:18.004Z,82.80
2017-05-11T00:09:45.934Z,82.00
2017-05-11T00:12:13.896Z,83.30
2017-05-11T00:14:41.836Z,81.70
2017-05-11T00:17:09.777Z,81.90
2017-05-11T00:19:37.736Z,81.60
2017-05-11T00:22:05.672Z,82.30
2017-05-11T00:24:33.609Z,83.30
2017-05-11T00:27:01.563Z,81.90
2017-05-11T00:29:29.502Z,82.40
2017-05-11T00:31:57.048Z,82.40
2017-05-11T00:34:25.008Z,82.60
2017-05-11T00:36:52.940Z,83.60
2017-05-11T00:39:20.876Z,84.00
2017-05-11T00:41:48.954Z,82.90
2017-05-11T00:44:16.877Z,81.70
2017-05-11T00:46:44.808Z,81.50
2017-05-11T00:49:12.773Z,81.50
2017-05-11T00:51:40.707Z,81.70
2017-05-11T00:54:08.640Z,81.30
2017-05-11T00:56:36.597Z,81.30
2017-05-11T00:59:04.528Z,81.60
2017-05-11T01:01:32.067Z,81.60
2017-05-11T01:04:00.583Z,83.20
2017-05-11T01:06:28.520Z,82.50
2017-05-11T01:08:56.055Z,82.50
2017-05-11T01:11:24.029Z,83.20
2017-05-11T01:13:51.978Z,83.00
2017-05-11T01:16:19.908Z,83.00
2017-05-11T01:18:47.481Z,83.00
2017-05-11T01:21:15.417Z,84.40
2017-05-11T01:23:43.717Z,84.10
2017-05-11T01:26:11.673Z,83.80
2017-05-11T01:28:39.603Z,83.30
2017-05-11T01:31:07.535Z,84.20
2017-05-11T01:33:35.496Z,84.90
2017-05-11T01:36:03.028Z,84.90
2017-05-11T01:38:31.335Z,85.60
2017-05-11T01:40:59.292Z,85.80
2017-05-11T01:43:27.229Z,85.60
2017-05-11T01:45:55.164Z,86.30
2017-05-11T01:48:23.130Z,86.20
2017-05-11T01:50:51.068Z,86.10
2017-05-11T01:53:18.996Z,86.40
2017-05-11T01:55:46.568Z,86.30
2017-05-11T01:58:14.513Z,84.70
2017-05-11T02:00:42.443Z,84.50
2017-05-11T02:03:10.025Z,84.50
2017-05-11T02:05:37.569Z,86.10
2017-05-11T02:08:05.544Z,86.10
2017-05-11T02:10:33.498Z,85.80
2017-05-11T02:13:01.798Z,86.90
2017-05-11T02:15:29.742Z,87.20
2017-05-11T02:17:58.383Z,87.10
2017-05-11T02:20:26.326Z,87.60
2017-05-11T02:22:54.272Z,88.00
2017-05-11T02:25:22.238Z,89.00
2017-05-11T02:27:50.543Z,88.70
2017-05-11T02:30:18.482Z,87.90
2017-05-11T02:32:46.920Z,88.60
2017-05-11T02:35:14.863Z,89.10
2017-05-11T02:37:42.801Z,89.10
2017-05-11T02:40:10.760Z,88.70
2017-05-11T02:42:38.301Z,88.70
2017-05-11T02:45:06.240Z,87.90
2017-05-11T02:47:34.202Z,87.70
2017-05-11T02:50:02.144Z,88.70
2017-05-11T02:52:29.684Z,88.70
2017-05-11T02:54:57.648Z,88.60
2017-05-11T02:57:25.196Z,88.60
2017-05-11T02:59:53.130Z,89.30
2017-05-11T03:02:21.099Z,89.50
2017-05-11T03:04:48.632Z,89.50
2017-05-11T03:07:16.175Z,89.40
2017-05-11T03:09:44.148Z,89.60
2017-05-11T03:12:11.689Z,89.60
2017-05-11T03:14:39.624Z,89.80
2017-05-11T03:17:07.591Z,89.40
2017-05-11T03:19:35.523Z,89.70
2017-05-11T03:22:03.456Z,89.20
2017-05-11T03:24:31.412Z,89.70
2017-05-11T03:26:59.345Z,90.90
2017-05-11T03:29:27.647Z,90.40
2017-05-11T03:31:55.604Z,90.70
2017-05-11T03:34:23.900Z,90.40
2017-05-11T03:36:51.835Z,90.60
2017-05-11T03:39:20.196Z,90.50
2017-05-11T03:41:48.134Z,91.20
2017-05-11T03:44:16.056Z,91.20
2017-05-11T03:46:44.384Z,91.30
2017-05-11T03:49:11.916Z,91.30
2017-05-11T03:51:39.851Z,91.50
2017-05-11T03:54:07.803Z,91.30
2017-05-11T03:56:35.747Z,91.50
2017-05-11T03:59:03.676Z,92.00
2017-05-11T04:01:31.237Z,92.00
2017-05-11T04:03:59.168Z,91.00
2017-05-11T04:06:26.716Z,91.00
2017-05-11T04:08:54.675Z,91.10
2017-05-11T04:11:22.604Z,90.80
2017-05-11T04:13:50.914Z,90.80
2017-05-11T04:16:18.560Z,90.80
2017-05-11T04:18:46.852Z,91.10
2017-05-11T04:21:14.784Z,91.80
2017-05-11T04:23:43.112Z,91.30
2017-05-11T04:26:11.039Z,91.20
2017-05-11T04:28:39.367Z,91.20
2017-05-11T04:31:06.934Z,91.20
2017-05-11T04:33:34.877Z,88.90
2017-05-11T04:36:02.813Z,88.70
2017-05-11T04:38:31.144Z,89.00
2017-05-11T04:40:59.078Z,88.80
2017-05-11T04:43:27.383Z,86.80
2017-05-11T04:45:55.339Z,86.30
2017-05-11T04:48:23.280Z,85.90
2017-05-11T04:50:51.212Z,85.90
2017-05-11T04:53:19.167Z,85.80
2017-05-11T04:55:46.709Z,85.80
2017-05-11T04:58:14.649Z,85.60
2017-05-11T05:00:42.612Z,85.40
2017-05-11T05:03:10.564Z,85.00
2017-05-11T05:05:38.492Z,84.50
2017-05-11T05:08:06.456Z,84.60
2017-05-11T05:10:34.001Z,84.60
2017-05-11T05:13:01.536Z,84.80
2017-05-11T05:15:29.499Z,84.30
2017-05-11T05:17:57.431Z,84.00
2017-05-11T05:20:24.980Z,84.00
2017-05-11T05:22:52.945Z,83.90
2017-05-11T05:25:20.488Z,83.90
2017-05-11T05:27:48.791Z,82.90
2017-05-11T05:30:16.360Z,82.90
2017-05-11T05:32:44.300Z,81.20
2017-05-11T05:35:11.843Z,81.20
2017-05-11T05:37:39.804Z,78.40
2017-05-11T05:40:07.740Z,78.40
2017-05-11T05:42:35.673Z,78.30
2017-05-11T05:45:04.007Z,77.00
2017-05-11T05:47:31.939Z,77.50
2017-05-11T05:49:59.875Z,77.50
2017-05-11T05:52:27.759Z,77.50
2017-05-11T05:54:56.055Z,77.90
2017-05-11T05:57:23.988Z,77.30
2017-05-11T05:59:51.947Z,76.80
2017-05-11T06:02:19.876Z,76.90
2017-05-11T06:04:47.816Z,77.30
2017-05-11T06:07:16.147Z,76.90
2017-05-11T06:09:44.109Z,77.50
2017-05-11T06:12:11.648Z,77.50
2017-05-11T06:14:39.216Z,77.70
2017-05-11T06:17:06.752Z,76.40
2017-05-11T06:19:35.072Z,77.50
2017-05-11T06:22:02.634Z,77.50
2017-05-11T06:24:30.563Z,77.60
2017-05-11T06:26:58.103Z,77.50
2017-05-11T06:29:26.808Z,77.40
2017-05-11T06:31:55.112Z,77.90
2017-05-11T06:34:23.049Z,77.80
2017-05-11T06:36:51.393Z,77.40
2017-05-11T06:39:19.330Z,77.40
2017-05-11T06:41:46.873Z,77.40
2017-05-11T06:44:14.839Z,77.20
2017-05-11T06:46:42.776Z,77.20
2017-05-11T06:49:10.708Z,76.30
2017-05-11T06:51:38.272Z,76.30
2017-05-11T06:54:06.204Z,76.30
2017-05-11T06:56:33.766Z,76.30
2017-05-11T06:59:02.097Z,75.80
2017-05-11T07:01:30.031Z,76.00
2017-05-11T07:03:58.113Z,76.10
2017-05-11T07:06:26.036Z,76.20
2017-05-11T07:08:53.976Z,75.30
2017-05-11T07:11:21.927Z,74.50
2017-05-11T07:13:49.468Z,74.50
2017-05-11T07:16:17.400Z,76.30
2017-05-11T07:18:45.360Z,76.20
2017-05-11T07:21:13.300Z,77.00
2017-05-11T07:23:40.840Z,77.00
2017-05-11T07:26:08.802Z,74.60
2017-05-11T07:28:36.344Z,74.60
2017-05-11T07:31:04.276Z,73.90
2017-05-11T07:33:32.241Z,72.30
2017-05-11T07:36:00.177Z,72.30
2017-05-11T07:38:28.116Z,72.10
2017-05-11T07:40:56.081Z,71.90
2017-05-11T07:43:24.015Z,71.60
2017-05-11T07:45:51.976Z,72.30
2017-05-11T07:48:19.903Z,71.80
2017-05-11T07:50:48.237Z,72.20
2017-05-11T07:53:16.176Z,72.00
2017-05-11T07:55:43.713Z,72.00
2017-05-11T07:58:12.044Z,71.40
2017-05-11T08:00:39.968Z,69.70
2017-05-11T08:03:08.293Z,70.50
2017-05-11T08:05:36.264Z,69.60
2017-05-11T08:08:04.210Z,70.20
2017-05-11T08:10:31.744Z,70.30
2017-05-11T08:12:59.298Z,69.20
2017-05-11T08:15:27.620Z,69.00
2017-05-11T08:17:55.552Z,67.40
2017-05-11T08:20:23.527Z,69.30
2017-05-11T08:22:51.829Z,66.80
2017-05-11T08:25:19.775Z,66.40
2017-05-11T08:27:48.104Z,66.10
2017-05-11T08:30:16.057Z,66.60
2017-05-11T08:32:43.988Z,66.20
2017-05-11T08:35:12.312Z,65.20
2017-05-11T08:37:40.254Z,63.60
2017-05-11T08:40:07.783Z,63.60
2017-05-11T08:42:35.736Z,62.70
2017-05-11T08:45:03.672Z,63.70
2017-05-11T08:47:31.612Z,62.30
2017-05-11T08:49:59.947Z,62.90
2017-05-11T08:52:27.476Z,62.90
2017-05-11T08:54:55.409Z,62.60
2017-05-11T08:57:23.369Z,61.00
2017-05-11T08:59:51.294Z,61.60
2017-05-11T09:02:19.223Z,60.60
2017-05-11T09:04:46.789Z,60.60
2017-05-11T09:07:14.320Z,60.80
2017-05-11T09:09:42.272Z,60.90
2017-05-11T09:12:10.232Z,63.80
2017-05-11T09:14:38.155Z,64.30
2017-05-11T09:17:06.476Z,65.50
2017-05-11T09:19:34.767Z,62.30
2017-05-11T09:22:02.704Z,62.80
2017-05-11T09:24:30.636Z,63.30
2017-05-11T09:26:58.200Z,63.30
2017-05-11T09:29:26.128Z,62.30
2017-05-11T09:31:53.665Z,62.30
2017-05-11T09:34:21.322Z,63.80
2017-05-11T09:36:49.265Z,63.00
2017-05-11T09:39:16.801Z,63.00
2017-05-11T09:41:44.765Z,61.50
2017-05-11T09:44:12.701Z,61.60
2017-05-11T09:46:40.635Z,60.30
2017-05-11T09:49:08.584Z,62.90
2017-05-11T09:51:36.520Z,62.00
2017-05-11T09:54:04.457Z,57.90
2017-05-11T09:56:32.018Z,57.90
2017-05-11T09:58:59.557Z,59.70
2017-05-11T10:01:27.480Z,56.70
2017-05-11T10:03:55.471Z,57.60
2017-05-11T10:06:23.392Z,57.60
2017-05-11T10:08:50.924Z,57.60
2017-05-11T10:11:18.904Z,55.10
2017-05-11T10:13:46.844Z,55.90
2017-05-11T10:16:14.792Z,54.80
2017-05-11T10:18:42.773Z,54.60
2017-05-11T10:21:10.302Z,54.50
2017-05-11T10:23:38.604Z,55.80
2017-05-11T10:26:06.557Z,54.50
2017-05-11T10:28:34.480Z,54.60
2017-05-11T10:31:02.412Z,53.80
2017-05-11T10:33:30.361Z,56.20
2017-05-11T10:35:58.291Z,51.80
2017-05-11T10:38:26.224Z,51.50
2017-05-11T10:40:54.180Z,51.40
2017-05-11T10:43:22.111Z,52.50
2017-05-11T10:45:50.041Z,49.60
2017-05-11T10:48:17.605Z,49.60
2017-05-11T10:50:45.528Z,51.60
2017-05-11T10:53:13.825Z,49.10
2017-05-11T10:55:41.379Z,49.10
2017-05-11T10:58:09.313Z,50.90
2017-05-11T11:00:37.233Z,49.10
2017-05-11T11:03:05.186Z,47.70
2017-05-11T11:05:33.485Z,48.40
2017-05-11T11:08:01.417Z,50.50
2017-05-11T11:10:29.363Z,45.60
2017-05-11T11:12:57.297Z,45.40
2017-05-11T11:15:25.221Z,47.60
2017-05-11T11:17:53.176Z,47.70
2017-05-11T11:20:20.712Z,47.70
2017-05-11T11:22:48.642Z,43.40
2017-05-11T11:25:16.971Z,44.50
2017-05-11T11:27:44.903Z,46.00
2017-05-11T11:30:12.820Z,45.10
2017-05-11T11:32:40.779Z,43.10
2017-05-11T11:35:08.708Z,42.60
2017-05-11T11:37:36.637Z,42.30
2017-05-11T11:40:04.200Z,42.30
2017-05-11T11:42:32.121Z,45.90
2017-05-11T11:45:00.397Z,43.40
2017-05-11T11:47:28.804Z,42.90
2017-05-11T11:49:56.737Z,40.90
2017-05-11T11:52:24.660Z,41.90
2017-05-11T11:54:52.607Z,40.80
2017-05-11T11:57:20.533Z,41.10
2017-05-11T11:59:48.832Z,41.40
2017-05-11T12:02:16.383Z,41.40
2017-05-11T12:04:44.321Z,40.80
2017-05-11T12:07:11.897Z,40.80
2017-05-11T12:09:39.450Z,40.30
2017-05-11T12:12:07.748Z,40.20
2017-05-11T12:14:35.671Z,40.40
2017-05-11T12:17:03.648Z,41.40
2017-05-11T12:19:31.607Z,39.70
2017-05-11T12:21:59.532Z,40.10
2017-05-11T12:24:27.063Z,40.10
2017-05-11T12:26:55.020Z,39.40
2017-05-11T12:29:22.944Z,40.00
2017-05-11T12:31:50.868Z,40.50
2017-05-11T12:34:18.428Z,40.50
2017-05-11T12:36:46.352Z,42.10
2017-05-11T12:39:13.883Z,42.10
2017-05-11T12:41:42.212Z,39.60
2017-05-11T12:44:10.159Z,41.10
2017-05-11T12:46:38.104Z,38.20
2017-05-11T12:49:06.453Z,38.90
2017-05-11T12:51:34.396Z,40.00
2017-05-11T12:54:02.316Z,38.40
2017-05-11T12:56:30.641Z,39.30
2017-05-11T12:58:58.568Z,38.80
2017-05-11T13:01:26.869Z,42.10
2017-05-11T13:03:54.861Z,39.60
2017-05-11T13:06:22.777Z,41.90
2017-05-11T13:08:50.701Z,40.30
2017-05-11T13:11:18.660Z,40.20
2017-05-11T13:13:46.588Z,40.00
2017-05-11T13:16:14.520Z,41.50
2017-05-11T13:18:42.476Z,40.60
2017-05-11T13:21:10.405Z,38.40
2017-05-11T13:23:38.703Z,40.40
2017-05-11T13:26:06.668Z,39.50
2017-05-11T13:28:34.620Z,38.40
2017-05-11T13:31:02.945Z,38.20
2017-05-11T13:33:30.509Z,38.20
2017-05-11T13:35:58.031Z,38.10
2017-05-11T13:38:25.956Z,42.20
2017-05-11T13:40:53.913Z,41.70
2017-05-11T13:43:21.836Z,39.80
2017-05-11T13:45:49.764Z,40.80
2017-05-11T13:48:17.721Z,40.60
2017-05-11T13:50:45.648Z,41.40
2017-05-11T13:53:13.572Z,40.90
2017-05-11T13:55:41.523Z,40.30
2017-05-11T13:58:09.456Z,41.50
2017-05-11T14:00:37.388Z,42.50
2017-05-11T14:03:05.341Z,43.20
2017-05-11T14:05:33.268Z,41.30
2017-05-11T14:08:00.800Z,41.30
2017-05-11T14:10:28.752Z,43.10
2017-05-11T14:12:56.698Z,45.10
2017-05-11T14:15:24.617Z,43.70
2017-05-11T14:17:52.940Z,43.60
2017-05-11T14:20:20.868Z,44.80
2017-05-11T14:22:48.404Z,44.80
2017-05-11T14:25:16.355Z,45.10
2017-05-11T14:27:44.279Z,44.30
2017-05-11T14:30:12.213Z,45.20
2017-05-11T14:32:40.167Z,44.90
2017-05-11T14:35:08.096Z,44.80
2017-05-11T14:37:36.023Z,45.60
2017-05-11T14:40:03.988Z,47.40
2017-05-11T14:42:31.921Z,45.10
2017-05-11T14:44:59.461Z,45.10
2017-05-11T14:47:27.409Z,43.20
2017-05-11T14:49:55.331Z,43.90
2017-05-11T14:52:23.265Z,47.50
2017-05-11T14:54:50.820Z,47.50
2017-05-11T14:57:19.119Z,47.00
2017-05-11T14:59:47.048Z,49.60
2017-05-11T15:02:15.042Z,48.60
2017-05-11T15:04:42.967Z,51.70
2017-05-11T15:07:10.508Z,51.70
2017-05-11T15:09:38.463Z,52.70
2017-05-11T15:12:06.441Z,50.20
2017-05-11T15:14:34.368Z,50.90
2017-05-11T15:17:02.324Z,52.30
2017-05-11T15:19:30.265Z,53.60
2017-05-11T15:21:58.191Z,55.70
2017-05-11T15:24:26.511Z,57.00
2017-05-11T15:26:54.459Z,59.80
2017-05-11T15:29:22.371Z,59.70
2017-05-11T15:31:50.332Z,60.90
2017-05-11T15:34:18.260Z,60.00
2017-05-11T15:36:46.208Z,59.50
2017-05-11T15:39:14.516Z,59.70
2017-05-11T15:41:42.445Z,58.30
2017-05-11T15:44:10.406Z,57.20
2017-05-11T15:46:38.353Z,55.30
2017-05-11T15:49:06.283Z,56.40
2017-05-11T15:51:34.604Z,56.20
2017-05-11T15:54:02.527Z,54.40
2017-05-11T15:56:30.823Z,52.90
2017-05-11T15:58:58.775Z,54.30
2017-05-11T16:01:27.068Z,52.70
2017-05-11T16:03:55.012Z,51.70
2017-05-11T16:06:23.328Z,49.00
2017-05-11T16:08:51.252Z,48.00
2017-05-11T16:11:19.204Z,47.70
2017-05-11T18:32:55.379Z,73.10
2017-05-11T18:35:24.710Z,76.40
2017-05-11T18:37:53.952Z,78.30
2017-05-11T18:40:23.051Z,78.60
2017-05-11T18:42:52.087Z,81.10
2017-05-11T18:45:21.039Z,82.10
2017-05-11T18:47:49.933Z,82.40
2017-05-11T18:50:18.965Z,82.90
2017-05-11T18:52:47.890Z,83.20
2017-05-11T18:55:17.102Z,83.40
2017-05-11T18:57:46.027Z,82.00
2017-05-11T19:00:14.601Z,82.00
2017-05-11T19:02:43.299Z,81.90
2017-05-11T19:05:12.270Z,83.50
2017-05-11T19:07:41.235Z,84.60
2017-05-11T19:10:10.259Z,84.50
2017-05-11T19:12:39.221Z,85.40
2017-05-11T19:15:08.142Z,85.10
2017-05-11T19:17:37.153Z,84.10
2017-05-11T19:20:06.073Z,84.70
2017-05-11T19:22:35.007Z,86.50
2017-05-11T19:25:04.449Z,87.40
2017-05-11T19:27:33.394Z,87.70
2017-05-11T19:30:02.355Z,87.50
2017-05-11T19:32:31.398Z,87.30
2017-05-11T19:35:00.658Z,87.90
2017-05-11T19:37:29.592Z,87.90
2017-05-11T19:39:58.243Z,87.90
2017-05-11T19:42:27.286Z,88.30
2017-05-11T19:44:55.802Z,88.30
2017-05-11T19:47:24.759Z,88.20
2017-05-11T19:49:53.796Z,87.60
2017-05-11T19:52:22.723Z,87.60
2017-05-11T19:54:52.018Z,87.90
2017-05-11T19:57:20.695Z,87.90
2017-05-11T19:59:49.641Z,86.90
2017-05-11T20:02:18.446Z,86.90
2017-05-11T20:04:47.504Z,87.80
2017-05-11T20:07:16.796Z,88.50
2017-05-11T20:09:46.246Z,88.40
2017-05-11T20:12:15.174Z,88.70
2017-05-11T20:14:44.321Z,87.90
2017-05-11T20:17:13.589Z,88.20
2017-05-11T20:19:42.791Z,88.00
2017-05-11T20:22:12.963Z,87.80
2017-05-11T20:24:41.891Z,87.50
2017-05-11T20:27:10.965Z,88.00
2017-05-11T20:29:39.970Z,87.10
2017-05-11T20:32:08.896Z,87.40
2017-05-11T20:34:38.390Z,87.30
2017-05-11T20:37:07.161Z,87.70
2017-05-11T20:39:35.646Z,87.70
2017-05-11T20:42:04.216Z,88.90
2017-05-11T20:44:32.729Z,89.20
2017-05-11T20:47:01.459Z,89.20
2017-05-11T20:49:30.351Z,89.00
2017-05-11T20:51:58.727Z,88.50
2017-05-11T20:54:26.874Z,88.10
2017-05-11T20:56:55.060Z,88.20
2017-05-11T20:59:22.642Z,88.20
2017-05-11T21:01:50.698Z,88.40
2017-05-11T21:04:18.747Z,88.70
2017-05-11T21:06:47.071Z,89.20
2017-05-11T21:09:15.026Z,89.20
2017-05-11T21:11:42.989Z,89.30
2017-05-11T21:14:10.967Z,89.50
2017-05-11T21:16:38.932Z,90.10
2017-05-11T21:19:06.883Z,90.10
2017-05-11T21:21:34.848Z,90.10
2017-05-11T21:24:02.781Z,90.40
2017-05-11T21:26:30.744Z,90.60
2017-05-11T21:28:58.681Z,90.80
2017-05-11T21:31:26.627Z,90.90
2017-05-11T21:33:54.180Z,90.90
2017-05-11T21:36:21.719Z,90.70
2017-05-11T21:38:49.656Z,91.70
2017-05-11T21:41:17.615Z,91.90
2017-05-11T21:43:45.539Z,92.20
2017-05-11T21:46:13.844Z,92.60
2017-05-11T21:48:41.800Z,92.40
2017-05-11T21:51:10.107Z,92.40
2017-05-11T21:53:38.032Z,93.00
2017-05-11T21:56:06.002Z,93.50
2017-05-11T21:58:33.927Z,92.30
2017-05-11T22:01:01.463Z,92.30
2017-05-11T22:03:29.020Z,92.20
2017-05-11T22:05:56.956Z,93.30
2017-05-11T22:08:24.888Z,92.80
2017-05-11T22:10:52.888Z,91.30
2017-05-11T22:13:20.820Z,90.90
2017-05-11T22:15:48.743Z,91.40
2017-05-11T22:18:16.699Z,92.50
2017-05-11T22:20:44.658Z,92.20
2017-05-11T22:23:12.592Z,90.90
2017-05-11T22:25:40.523Z,91.50
2017-05-11T22:28:08.492Z,92.70
2017-05-11T22:30:36.432Z,93.00
2017-05-11T22:33:04.356Z,93.40
2017-05-11T22:35:32.307Z,93.60
2017-05-11T22:38:00.602Z,92.80
2017-05-11T22:40:28.536Z,91.80
2017-05-11T22:42:56.487Z,92.40
2017-05-11T22:45:24.425Z,91.80
2017-05-11T22:47:52.348Z,91.00
2017-05-11T22:50:20.303Z,91.90
2017-05-11T22:52:48.241Z,92.30
2017-05-11T22:55:16.184Z,93.10
2017-05-11T22:57:43.749Z,93.10
2017-05-11T23:00:11.672Z,93.60
2017-05-11T23:02:39.606Z,93.30
2017-05-11T23:05:07.560Z,93.80
2017-05-11T23:07:35.856Z,94.40
2017-05-11T23:10:03.779Z,94.40
2017-05-11T23:12:31.730Z,94.60
2017-05-11T23:14:59.664Z,94.60
2017-05-11T23:17:27.191Z,94.60
2017-05-11T23:19:55.517Z,94.80
2017-05-11T23:22:23.048Z,94.80
2017-05-11T23:24:50.584Z,94.80
2017-05-11T23:27:18.542Z,93.30
2017-05-11T23:29:46.549Z,93.20
2017-05-11T23:32:14.071Z,93.20
2017-05-11T23:34:42.027Z,91.60
2017-05-11T23:37:09.971Z,91.40
2017-05-11T23:39:37.919Z,91.10
2017-05-11T23:42:06.179Z,91.00
2017-05-11T23:44:34.475Z,91.30
2017-05-11T23:47:02.410Z,90.70
2017-05-11T23:49:30.356Z,90.90
2017-05-11T23:51:58.292Z,91.00
2017-05-11T23:55:44.748Z,91.00
